Time;durP1;ratioP1;P1;durP2;ratioP2;P2;SDS_P1;SDS_P2;PMS_P1;PMS_P2;Temp;Humidity;BMP_temperature;BMP_pressure;BME280_temperature;BME280_humidity;BME280_pressure;Samples;Min_cycle;Max_cycle;Signal;HPM_P1;HPM_P2
2023/04/13 00:00:22;;;;;;;6.15;3.45;;;;;;;;;;5024084;28;20070;-76
2023/04/13 00:02:54;;;;;;;4.80;3.47;;;;;;;;;;5021943;28;20052;-76
2023/04/13 00:05:21;;;;;;;6.13;3.38;;;;;;;;;;5042077;28;22128;-76
2023/04/13 00:07:47;;;;;;;6.45;3.00;;;;;;;;;;5021642;28;20381;-76
2023/04/13 00:10:14;;;;;;;6.10;3.80;;;;;;;;;;5021108;28;20098;-76
2023/04/13 00:12:41;;;;;;;7.05;3.72;;;;;;;;;;5035435;28;20631;-75
2023/04/13 00:15:08;;;;;;;13.73;3.50;;;;;;;;;;5017208;28;20053;-76
2023/04/13 00:17:36;;;;;;;8.07;3.50;;;;;;;;;;5039654;28;20185;-76
2023/04/13 00:20:07;;;;;;;6.90;3.85;;;;;;;;;;5019255;28;21645;-76
2023/04/13 00:22:33;;;;;;;5.60;3.72;;;;;;;;;;5019004;28;20401;-76
2023/04/13 00:25:00;;;;;;;6.03;3.88;;;;;;;;;;5024918;28;20055;-75
2023/04/13 00:27:26;;;;;;;5.90;4.03;;;;;;;;;;5023903;28;20139;-75
2023/04/13 00:29:55;;;;;;;6.78;3.97;;;;;;;;;;5021274;28;20174;-76
2023/04/13 00:32:25;;;;;;;7.38;3.83;;;;;;;;;;5017845;28;20105;-76
2023/04/13 00:34:52;;;;;;;5.55;3.60;;;;;;;;;;5022259;28;20052;-76
2023/04/13 00:37:18;;;;;;;9.05;3.97;;;;;;;;;;5019983;28;20487;-76
2023/04/13 00:39:45;;;;;;;6.03;3.83;;;;;;;;;;5018134;28;20127;-74
2023/04/13 00:42:11;;;;;;;7.00;4.80;;;;;;;;;;5016670;28;20569;-75
2023/04/13 00:44:38;;;;;;;5.68;4.00;;;;;;;;;;5018450;28;20071;-76
2023/04/13 00:47:05;;;;;;;6.75;4.28;;;;;;;;;;5016503;28;22105;-75
2023/04/13 00:49:35;;;;;;;7.22;4.00;;;;;;;;;;5018422;28;20559;-75
2023/04/13 00:52:04;;;;;;;6.22;4.07;;;;;;;;;;5017316;28;20177;-75
2023/04/13 00:54:33;;;;;;;4.57;3.40;;;;;;;;;;5016102;28;20696;-75
2023/04/13 00:57:00;;;;;;;8.27;4.75;;;;;;;;;;5014236;28;20049;-76
2023/04/13 00:59:26;;;;;;;6.03;3.90;;;;;;;;;;5017089;28;20037;-76
2023/04/13 01:01:56;;;;;;;6.78;3.97;;;;;;;;;;5018491;28;20500;-76
2023/04/13 01:04:26;;;;;;;5.13;3.65;;;;;;;;;;5017398;28;20110;-76
2023/04/13 01:07:11;;;;;;;8.02;4.10;;;;;;;;;;5028764;28;20068;-76
2023/04/13 01:09:41;;;;;;;7.80;4.00;;;;;;;;;;5017053;28;20060;-76
2023/04/13 01:12:11;;;;;;;5.55;4.30;;;;;;;;;;5018567;28;20044;-76
2023/04/13 01:14:56;;;;;;;5.78;4.18;;;;;;;;;;5015030;28;20149;-76
2023/04/13 01:17:29;;;;;;;6.20;4.30;;;;;;;;;;5014316;28;20488;-76
2023/04/13 01:19:58;;;;;;;6.82;4.57;;;;;;;;;;5017136;28;20074;-75
2023/04/13 01:22:27;;;;;;;5.13;4.03;;;;;;;;;;5000126;28;21695;-76
2023/04/13 01:24:56;;;;;;;8.55;4.18;;;;;;;;;;5016647;28;20041;-76
2023/04/13 01:27:46;;;;;;;6.72;4.13;;;;;;;;;;5013323;28;20151;-76
2023/04/13 01:30:13;;;;;;;5.78;4.40;;;;;;;;;;5011128;28;20049;-76
2023/04/13 01:32:44;;;;;;;4.70;4.05;;;;;;;;;;5021760;28;21539;-76
2023/04/13 01:35:10;;;;;;;6.00;4.28;;;;;;;;;;5021394;28;20069;-76
2023/04/13 01:37:37;;;;;;;4.95;4.18;;;;;;;;;;5018220;28;20190;-76
2023/04/13 01:40:11;;;;;;;5.47;4.50;;;;;;;;;;5037023;28;20821;-77
2023/04/13 01:42:37;;;;;;;;;;;;;;;;;;5017901;28;20574;-77
2023/04/13 01:45:04;;;;;;;7.78;5.78;;;;;;;;;;5013132;28;19923;-76
2023/04/13 01:47:32;;;;;;;7.13;5.88;;;;;;;;;;5013163;28;20060;-78
2023/04/13 01:50:02;;;;;;;10.23;6.45;;;;;;;;;;4998225;28;20122;-79
2023/04/13 01:52:31;;;;;;;12.98;6.60;;;;;;;;;;4997497;28;20765;-77
2023/04/13 01:54:58;;;;;;;12.48;6.97;;;;;;;;;;4997740;28;20044;-78
2023/04/13 01:57:24;;;;;;;7.97;6.78;;;;;;;;;;5017386;28;20068;-78
2023/04/13 01:59:50;;;;;;;8.07;6.90;;;;;;;;;;5018552;28;20497;-78
2023/04/13 02:02:16;;;;;;;9.77;6.82;;;;;;;;;;5017160;28;20174;-79
2023/04/13 02:04:42;;;;;;;9.38;7.45;;;;;;;;;;5015473;28;20071;-78
2023/04/13 02:07:11;;;;;;;8.75;7.38;;;;;;;;;;5017084;28;20166;-77
2023/04/13 02:09:37;;;;;;;9.25;7.78;;;;;;;;;;5024604;28;20044;-78
2023/04/13 02:12:03;;;;;;;8.68;6.70;;;;;;;;;;5025025;28;20160;-79
2023/04/13 02:14:29;;;;;;;10.77;7.93;;;;;;;;;;5017406;28;20040;-79
2023/04/13 02:16:56;;;;;;;10.65;7.68;;;;;;;;;;5020629;28;20059;-78
2023/04/13 02:19:23;;;;;;;7.93;7.03;;;;;;;;;;5020363;28;20040;-78
2023/04/13 02:21:49;;;;;;;7.60;5.80;;;;;;;;;;5033722;28;20049;-79
2023/04/13 02:24:16;;;;;;;7.38;6.47;;;;;;;;;;5018833;28;20044;-79
2023/04/13 02:26:42;;;;;;;7.80;6.07;;;;;;;;;;5019212;28;22075;-79
2023/04/13 02:29:08;;;;;;;10.43;6.10;;;;;;;;;;5034728;28;20649;-79
2023/04/13 02:31:35;;;;;;;12.73;6.68;;;;;;;;;;5018688;28;20065;-80
2023/04/13 02:34:01;;;;;;;7.80;6.07;;;;;;;;;;5017230;28;20040;-80
2023/04/13 02:36:27;;;;;;;8.73;6.53;;;;;;;;;;5018303;28;20059;-79
2023/04/13 02:38:53;;;;;;;6.78;6.07;;;;;;;;;;5017283;28;20158;-79
2023/04/13 02:41:21;;;;;;;10.80;6.20;;;;;;;;;;5039668;28;20052;-79
2023/04/13 02:43:49;;;;;;;8.02;6.05;;;;;;;;;;5040030;28;20146;-80
2023/04/13 02:46:15;;;;;;;8.63;5.65;;;;;;;;;;5015186;28;20078;-79
2023/04/13 02:48:42;;;;;;;7.32;5.72;;;;;;;;;;5014489;28;20053;-80
2023/04/13 02:51:08;;;;;;;7.05;5.10;;;;;;;;;;4990442;28;20033;-79
2023/04/13 02:53:35;;;;;;;9.75;5.68;;;;;;;;;;5013810;28;20055;-79
2023/04/13 02:56:01;;;;;;;7.82;5.40;;;;;;;;;;5026954;28;20138;-80
2023/04/13 02:58:31;;;;;;;6.28;5.45;;;;;;;;;;5007959;28;20044;-80
2023/04/13 03:00:57;;;;;;;7.63;5.35;;;;;;;;;;5033608;28;20068;-80
2023/04/13 03:03:23;;;;;;;10.60;5.40;;;;;;;;;;5036113;28;20047;-80
2023/04/13 03:05:50;;;;;;;6.97;5.70;;;;;;;;;;5013859;28;20666;-80
2023/04/13 03:08:16;;;;;;;12.30;5.50;;;;;;;;;;5018277;28;20154;-80
2023/04/13 03:10:43;;;;;;;10.27;5.90;;;;;;;;;;5020376;28;21128;-80
2023/04/13 03:13:10;;;;;;;7.65;4.68;;;;;;;;;;5000841;28;20561;-80
2023/04/13 03:15:36;;;;;;;9.63;5.38;;;;;;;;;;5038778;28;20044;-80
2023/04/13 03:18:03;;;;;;;9.38;5.20;;;;;;;;;;5018032;28;20052;-80
2023/04/13 03:20:29;;;;;;;6.97;5.25;;;;;;;;;;5018236;28;20044;-80
2023/04/13 03:22:57;;;;;;;7.05;5.82;;;;;;;;;;5017123;28;20274;-80
2023/04/13 03:25:23;;;;;;;5.60;3.78;;;;;;;;;;5037702;28;20040;-79
2023/04/13 03:27:50;;;;;;;7.25;4.53;;;;;;;;;;5014926;28;20044;-78
2023/04/13 03:30:17;;;;;;;7.22;4.25;;;;;;;;;;5018025;28;20284;-79
2023/04/13 03:32:43;;;;;;;4.13;3.50;;;;;;;;;;4997901;28;22265;-79
2023/04/13 03:35:10;;;;;;;5.40;4.00;;;;;;;;;;5001373;28;20052;-79
2023/04/13 03:37:41;;;;;;;8.15;4.18;;;;;;;;;;4997778;28;20048;-79
2023/04/13 03:40:11;;;;;;;6.13;4.40;;;;;;;;;;5034770;28;20044;-79
2023/04/13 03:42:37;;;;;;;7.05;4.53;;;;;;;;;;5017495;28;21292;-79
2023/04/13 03:45:04;;;;;;;8.00;3.70;;;;;;;;;;4998517;28;20055;-79
2023/04/13 03:47:30;;;;;;;10.15;5.50;;;;;;;;;;5017719;28;20060;-79
2023/04/13 03:49:56;;;;;;;5.60;4.93;;;;;;;;;;5019476;28;20063;-77
2023/04/13 03:52:22;;;;;;;7.40;5.40;;;;;;;;;;5024095;28;20056;-79
2023/04/13 03:54:48;;;;;;;9.57;5.57;;;;;;;;;;5009226;28;20041;-79
2023/04/13 03:57:15;;;;;;;8.13;5.32;;;;;;;;;;4999999;28;20041;-79
2023/04/13 03:59:41;;;;;;;8.27;5.95;;;;;;;;;;5000473;28;20068;-79
2023/04/13 04:02:07;;;;;;;9.38;5.60;;;;;;;;;;5011137;28;21956;-80
2023/04/13 04:04:33;;;;;;;9.57;5.80;;;;;;;;;;5026854;28;20480;-79
2023/04/13 04:07:00;;;;;;;11.23;6.28;;;;;;;;;;5018504;28;20040;-78
2023/04/13 04:09:26;;;;;;;7.45;5.68;;;;;;;;;;5017770;28;20056;-78
2023/04/13 04:11:52;;;;;;;9.00;6.40;;;;;;;;;;5025272;28;20052;-79
2023/04/13 04:14:19;;;;;;;9.82;6.03;;;;;;;;;;5006789;28;20587;-78
2023/04/13 04:16:45;;;;;;;8.43;5.85;;;;;;;;;;5021945;28;20052;-80
2023/04/13 04:19:11;;;;;;;8.07;6.47;;;;;;;;;;5024430;28;22067;-80
2023/04/13 04:21:37;;;;;;;10.82;5.05;;;;;;;;;;5027084;28;20135;-80
2023/04/13 04:24:07;;;;;;;6.50;4.70;;;;;;;;;;5028351;28;20050;-80
2023/04/13 04:26:36;;;;;;;6.82;3.67;;;;;;;;;;5040550;28;20058;-80
2023/04/13 04:29:03;;;;;;;4.93;4.10;;;;;;;;;;5038865;28;20055;-80
2023/04/13 04:31:34;;;;;;;5.25;3.60;;;;;;;;;;5009796;28;20049;-81
2023/04/13 04:34:01;;;;;;;7.15;3.75;;;;;;;;;;5025725;28;20054;-80
2023/04/13 04:36:27;;;;;;;5.47;3.28;;;;;;;;;;5018267;28;20133;-80
2023/04/13 04:39:00;;;;;;;6.65;3.47;;;;;;;;;;5004186;28;20055;-79
2023/04/13 04:41:26;;;;;;;3.00;2.70;;;;;;;;;;5006197;28;20094;-79
2023/04/13 04:43:55;;;;;;;4.55;3.08;;;;;;;;;;5022773;28;20049;-79
2023/04/13 04:46:24;;;;;;;8.20;3.60;;;;;;;;;;5020158;28;20890;-79
2023/04/13 04:48:51;;;;;;;2.90;2.63;;;;;;;;;;5019532;28;20141;-79
2023/04/13 04:51:17;;;;;;;4.45;3.53;;;;;;;;;;5032945;28;20059;-79
2023/04/13 04:53:43;;;;;;;4.70;2.90;;;;;;;;;;5038009;28;20040;-79
2023/04/13 04:56:09;;;;;;;3.10;2.83;;;;;;;;;;5003068;28;20036;-79
2023/04/13 04:58:35;;;;;;;4.50;2.92;;;;;;;;;;5016039;28;20045;-79
2023/04/13 05:01:02;;;;;;;5.80;3.42;;;;;;;;;;5017547;28;20044;-80
2023/04/13 05:03:28;;;;;;;5.50;3.17;;;;;;;;;;5013626;28;20048;-79
2023/04/13 05:05:54;;;;;;;5.25;3.60;;;;;;;;;;5035287;28;20055;-79
2023/04/13 05:08:21;;;;;;;3.20;2.75;;;;;;;;;;5018132;28;20044;-79
2023/04/13 05:10:47;;;;;;;4.10;3.63;;;;;;;;;;5017523;28;20086;-79
2023/04/13 05:13:13;;;;;;;5.60;3.50;;;;;;;;;;5035989;28;21217;-78
2023/04/13 05:15:39;;;;;;;7.75;3.65;;;;;;;;;;5030985;28;20044;-79
2023/04/13 05:18:05;;;;;;;4.07;3.10;;;;;;;;;;5001688;28;20131;-78
2023/04/13 05:20:33;;;;;;;5.88;3.65;;;;;;;;;;5017135;28;20045;-79
2023/04/13 05:22:59;;;;;;;7.90;3.60;;;;;;;;;;5019741;28;20643;-77
2023/04/13 05:25:26;;;;;;;5.57;3.58;;;;;;;;;;5019888;28;21588;-78
2023/04/13 05:27:52;;;;;;;5.90;3.40;;;;;;;;;;5032196;28;20040;-78
2023/04/13 05:30:18;;;;;;;4.50;3.40;;;;;;;;;;5022601;28;20055;-77
2023/04/13 05:32:44;;;;;;;4.45;3.10;;;;;;;;;;5048240;28;20041;-76
2023/04/13 05:35:11;;;;;;;4.40;3.80;;;;;;;;;;5008993;28;20036;-77
2023/04/13 05:37:38;;;;;;;5.97;3.50;;;;;;;;;;5021147;28;20106;-78
2023/04/13 05:40:08;;;;;;;8.93;3.90;;;;;;;;;;5021377;28;20048;-77
2023/04/13 05:42:34;;;;;;;6.28;4.03;;;;;;;;;;5020705;28;20498;-78
2023/04/13 05:45:01;;;;;;;4.80;4.00;;;;;;;;;;5028409;28;20047;-78
2023/04/13 05:47:28;;;;;;;7.18;4.13;;;;;;;;;;5021373;28;20051;-78
2023/04/13 05:49:54;;;;;;;8.20;4.75;;;;;;;;;;5022145;28;20061;-79
2023/04/13 05:52:20;;;;;;;5.40;4.30;;;;;;;;;;5022404;28;20148;-78
2023/04/13 05:54:46;;;;;;;5.90;4.95;;;;;;;;;;5024262;28;20041;-78
2023/04/13 05:57:13;;;;;;;6.82;4.80;;;;;;;;;;5023533;28;22066;-78
2023/04/13 05:59:39;;;;;;;5.43;4.88;;;;;;;;;;5000871;28;20554;-79
2023/04/13 06:02:05;;;;;;;7.40;4.95;;;;;;;;;;5021212;28;20496;-78
2023/04/13 06:04:33;;;;;;;7.18;5.65;;;;;;;;;;5022243;28;20041;-78
2023/04/13 06:06:59;;;;;;;8.20;5.88;;;;;;;;;;5020264;28;20048;-79
2023/04/13 06:09:26;;;;;;;8.57;5.60;;;;;;;;;;5024890;28;20053;-78
2023/04/13 06:11:53;;;;;;;7.40;5.88;;;;;;;;;;5020985;28;20049;-79
2023/04/13 06:14:19;;;;;;;7.07;5.30;;;;;;;;;;5022878;28;20052;-79
2023/04/13 06:16:46;;;;;;;7.75;5.15;;;;;;;;;;5023549;28;20041;-79
2023/04/13 06:19:12;;;;;;;7.10;5.80;;;;;;;;;;5023671;28;20106;-79
2023/04/13 06:21:38;;;;;;;8.40;6.00;;;;;;;;;;5021806;28;22234;-79
2023/04/13 06:24:04;;;;;;;7.97;6.55;;;;;;;;;;5022665;28;20984;-78
2023/04/13 06:26:30;;;;;;;8.73;5.88;;;;;;;;;;5024600;28;20522;-79
2023/04/13 06:28:56;;;;;;;11.30;5.80;;;;;;;;;;5001730;28;20041;-79
2023/04/13 06:31:26;;;;;;;6.90;4.68;;;;;;;;;;5004046;28;20044;-78
2023/04/13 06:33:52;;;;;;;10.85;5.57;;;;;;;;;;5017385;28;20862;-79
2023/04/13 06:36:18;;;;;;;8.15;5.03;;;;;;;;;;5021443;28;20033;-78
2023/04/13 06:38:44;;;;;;;9.38;5.30;;;;;;;;;;5015013;28;20163;-80
2023/04/13 06:41:10;;;;;;;7.00;4.55;;;;;;;;;;5024170;28;20056;-80
2023/04/13 06:43:37;;;;;;;4.10;3.50;;;;;;;;;;5025940;28;20060;-80
2023/04/13 06:46:03;;;;;;;8.57;4.63;;;;;;;;;;5005820;28;20916;-79
2023/04/13 06:48:29;;;;;;;8.85;4.28;;;;;;;;;;5017222;28;20088;-80
2023/04/13 06:50:57;;;;;;;11.55;4.05;;;;;;;;;;5018826;28;20055;-80
2023/04/13 06:53:24;;;;;;;9.13;4.00;;;;;;;;;;5002614;28;20048;-80
2023/04/13 06:55:50;;;;;;;6.78;3.78;;;;;;;;;;5020700;28;20753;-79
2023/04/13 06:58:16;;;;;;;6.82;3.58;;;;;;;;;;5023458;28;20049;-81
2023/04/13 07:00:42;;;;;;;6.75;3.92;;;;;;;;;;5013135;28;20049;-81
2023/04/13 07:03:10;;;;;;;6.75;3.90;;;;;;;;;;4998896;28;20315;-83
2023/04/13 07:05:37;;;;;;;10.52;4.40;;;;;;;;;;5016326;28;20049;-81
2023/04/13 07:08:04;;;;;;;7.45;3.72;;;;;;;;;;5017877;28;20526;-82
2023/04/13 07:10:30;;;;;;;8.25;4.35;;;;;;;;;;5004019;28;20043;-82
2023/04/13 07:12:56;;;;;;;8.38;4.15;;;;;;;;;;5020751;28;20586;-82
2023/04/13 07:15:22;;;;;;;6.28;3.63;;;;;;;;;;5015967;28;20049;-82
2023/04/13 07:17:48;;;;;;;9.32;4.18;;;;;;;;;;5027204;28;20452;-83
2023/04/13 07:20:16;;;;;;;6.88;3.17;;;;;;;;;;5004284;28;20048;-83
2023/04/13 07:22:42;;;;;;;10.45;2.63;;;;;;;;;;4988697;28;20099;-83
2023/04/13 07:25:08;;;;;;;6.20;3.08;;;;;;;;;;5025793;28;20355;-83
2023/04/13 07:27:34;;;;;;;5.05;2.38;;;;;;;;;;5022861;28;20044;-84
2023/04/13 07:30:00;;;;;;;5.85;2.05;;;;;;;;;;5023046;28;20037;-84
2023/04/13 07:32:27;;;;;;;6.40;2.78;;;;;;;;;;4987856;28;20056;-84
2023/04/13 07:34:58;;;;;;;4.68;2.80;;;;;;;;;;5023556;28;20095;-84
2023/04/13 07:37:24;;;;;;;7.72;3.20;;;;;;;;;;5022143;28;20059;-84
2023/04/13 07:39:50;;;;;;;11.20;4.57;;;;;;;;;;5023750;28;20040;-83
2023/04/13 07:42:16;;;;;;;9.70;4.20;;;;;;;;;;5023742;28;20139;-83
2023/04/13 07:44:42;;;;;;;6.90;3.92;;;;;;;;;;5022160;28;20048;-84
2023/04/13 07:47:09;;;;;;;7.90;3.72;;;;;;;;;;5019905;28;20124;-85
2023/04/13 07:49:38;;;;;;;6.47;4.28;;;;;;;;;;5021870;28;20072;-86
2023/04/13 07:52:04;;;;;;;8.43;3.72;;;;;;;;;;4993728;28;20093;-83
2023/04/13 07:54:30;;;;;;;8.88;3.90;;;;;;;;;;5020553;28;20835;-83
2023/04/13 07:56:57;;;;;;;10.43;4.60;;;;;;;;;;5019886;28;20040;-82
2023/04/13 07:59:23;;;;;;;7.47;3.17;;;;;;;;;;4997072;28;20135;-82
2023/04/13 08:01:49;;;;;;;5.35;2.90;;;;;;;;;;5018570;28;20052;-84
2023/04/13 08:04:18;;;;;;;8.85;3.47;;;;;;;;;;5017940;28;20277;-76
2023/04/13 08:06:44;;;;;;;8.27;3.92;;;;;;;;;;5020299;28;20037;-81
2023/04/13 08:09:10;;;;;;;5.38;3.80;;;;;;;;;;5020886;28;20072;-82
2023/04/13 08:11:36;;;;;;;8.15;4.45;;;;;;;;;;5001517;28;20123;-82
2023/04/13 08:14:03;;;;;;;8.07;3.47;;;;;;;;;;5009300;28;20099;-82
2023/04/13 08:16:33;;;;;;;5.97;3.97;;;;;;;;;;5006174;28;20037;-82
2023/04/13 08:19:00;;;;;;;7.28;3.60;;;;;;;;;;5007765;28;23357;-83
2023/04/13 08:21:26;;;;;;;11.90;3.70;;;;;;;;;;5025897;28;20157;-83
2023/04/13 08:23:53;;;;;;;9.73;3.58;;;;;;;;;;5020284;28;20048;-83
2023/04/13 08:26:20;;;;;;;6.85;2.70;;;;;;;;;;5023133;28;20048;-83
2023/04/13 08:28:51;;;;;;;7.55;3.30;;;;;;;;;;5022272;28;20041;-83
2023/04/13 08:31:21;;;;;;;5.07;2.67;;;;;;;;;;5027498;28;20163;-83
2023/04/13 08:33:47;;;;;;;5.78;2.17;;;;;;;;;;5024167;28;20064;-82
2023/04/13 08:36:13;;;;;;;6.18;2.25;;;;;;;;;;5039838;28;20033;-82
2023/04/13 08:38:39;;;;;;;7.70;2.30;;;;;;;;;;5017267;28;20527;-82
2023/04/13 08:41:06;;;;;;;4.93;2.00;;;;;;;;;;5019908;28;20571;-82
2023/04/13 08:43:36;;;;;;;5.00;2.00;;;;;;;;;;5005524;28;20061;-82
2023/04/13 08:46:08;;;;;;;3.90;1.60;;;;;;;;;;5022608;28;20426;-82
2023/04/13 08:48:41;;;;;;;3.17;1.55;;;;;;;;;;5018763;28;20222;-81
2023/04/13 08:51:09;;;;;;;2.45;1.25;;;;;;;;;;5018477;28;20102;-81
2023/04/13 08:53:35;;;;;;;5.53;1.80;;;;;;;;;;5007278;28;20640;-81
2023/04/13 08:56:01;;;;;;;3.03;1.40;;;;;;;;;;5002637;28;20044;-83
2023/04/13 08:58:28;;;;;;;3.05;1.27;;;;;;;;;;4999035;28;20061;-81
2023/04/13 09:00:55;;;;;;;3.47;1.35;;;;;;;;;;5019956;28;20049;-82
2023/04/13 09:03:26;;;;;;;5.35;1.75;;;;;;;;;;5023716;28;20775;-82
2023/04/13 09:05:55;;;;;;;3.83;1.60;;;;;;;;;;5005304;28;20499;-83
2023/04/13 09:08:22;;;;;;;5.47;2.03;;;;;;;;;;5018563;28;20628;-82
2023/04/13 09:10:48;;;;;;;3.78;1.50;;;;;;;;;;5019675;28;20037;-83
2023/04/13 09:13:15;;;;;;;5.20;1.63;;;;;;;;;;4999822;28;20074;-79
2023/04/13 09:15:45;;;;;;;2.25;1.33;;;;;;;;;;5020926;28;20079;-86
2023/04/13 09:18:12;;;;;;;3.13;1.70;;;;;;;;;;5019299;28;20063;-85
2023/04/13 09:20:39;;;;;;;7.10;1.58;;;;;;;;;;5018983;28;20102;-83
2023/04/13 09:23:15;;;;;;;4.75;1.85;;;;;;;;;;5019062;28;20049;-84
2023/04/13 09:25:41;;;;;;;4.70;1.67;;;;;;;;;;5020406;28;21972;-82
2023/04/13 09:28:14;;;;;;;3.33;1.60;;;;;;;;;;5017828;28;20060;-82
2023/04/13 09:30:41;;;;;;;3.38;1.80;;;;;;;;;;5017025;28;20041;-87
2023/04/13 09:33:09;;;;;;;3.78;1.70;;;;;;;;;;5015624;28;21053;-88
2023/04/13 09:35:35;;;;;;;3.15;1.33;;;;;;;;;;5002744;28;20048;-84
2023/04/13 09:38:02;;;;;;;1.95;1.35;;;;;;;;;;5019659;28;20049;-85
2023/04/13 09:40:28;;;;;;;3.97;1.35;;;;;;;;;;5014939;28;20049;-86
2023/04/13 09:42:54;;;;;;;3.90;1.40;;;;;;;;;;5019249;28;20076;-86
2023/04/13 09:45:21;;;;;;;2.47;1.30;;;;;;;;;;5021881;28;20409;-87
2023/04/13 09:47:47;;;;;;;0.80;0.80;;;;;;;;;;5022125;28;20038;-88
2023/04/13 09:50:26;;;;;;;2.80;1.10;;;;;;;;;;5019225;28;20366;-83
2023/04/13 09:53:01;;;;;;;1.13;1.00;;;;;;;;;;5017748;28;20160;-84
2023/04/13 09:55:28;;;;;;;3.05;1.48;;;;;;;;;;5021248;28;20036;-84
2023/04/13 09:57:54;;;;;;;3.08;1.38;;;;;;;;;;5023536;28;20097;-83
2023/04/13 10:00:22;;;;;;;2.58;1.55;;;;;;;;;;5031326;28;20053;-84
2023/04/13 10:02:52;;;;;;;4.03;1.50;;;;;;;;;;5006176;28;20728;-85
2023/04/13 10:05:19;;;;;;;6.60;2.40;;;;;;;;;;5005623;28;20550;-80
2023/04/13 10:07:45;;;;;;;5.60;2.05;;;;;;;;;;5020247;28;20374;-80
2023/04/13 10:10:11;;;;;;;9.68;2.05;;;;;;;;;;5021053;28;20569;-81
2023/04/13 10:12:40;;;;;;;6.65;2.17;;;;;;;;;;5023044;28;20049;-81
2023/04/13 10:15:15;;;;;;;8.60;3.03;;;;;;;;;;5017842;28;20044;-79
2023/04/13 10:18:00;;;;;;;6.88;1.60;;;;;;;;;;5015687;28;20047;-76
2023/04/13 10:20:27;;;;;;;1.15;0.60;;;;;;;;;;5017094;28;20102;-79
2023/04/13 10:22:53;;;;;;;0.80;0.60;;;;;;;;;;5001344;28;20033;-80
2023/04/13 10:25:20;;;;;;;5.57;0.80;;;;;;;;;;5020622;28;20048;-80
2023/04/13 10:27:55;;;;;;;2.70;0.82;;;;;;;;;;5020593;28;20045;-79
2023/04/13 10:30:22;;;;;;;2.85;1.00;;;;;;;;;;5023160;28;20572;-76
2023/04/13 10:32:48;;;;;;;1.33;0.50;;;;;;;;;;5020572;28;20047;-74
2023/04/13 10:35:14;;;;;;;2.80;0.60;;;;;;;;;;5022440;28;20037;-75
2023/04/13 10:37:43;;;;;;;4.15;0.80;;;;;;;;;;5018084;28;20581;-75
2023/04/13 10:40:13;;;;;;;2.92;0.40;;;;;;;;;;5019064;28;20049;-75
2023/04/13 10:42:43;;;;;;;2.70;0.50;;;;;;;;;;5035463;28;20067;-75
2023/04/13 10:45:17;;;;;;;2.10;0.50;;;;;;;;;;5033742;28;20437;-76
2023/04/13 10:47:43;;;;;;;0.88;0.40;;;;;;;;;;4999262;28;20102;-76
2023/04/13 10:50:23;;;;;;;4.35;0.50;;;;;;;;;;5022771;28;20603;-84
2023/04/13 10:52:56;;;;;;;1.45;0.50;;;;;;;;;;5026993;28;20053;-84
2023/04/13 10:55:28;;;;;;;0.57;0.50;;;;;;;;;;5018753;28;20034;-85
2023/04/13 10:57:58;;;;;;;2.47;0.50;;;;;;;;;;5022515;28;20168;-84
2023/04/13 11:00:24;;;;;;;1.88;1.00;;;;;;;;;;5029147;28;20049;-84
2023/04/13 11:02:52;;;;;;;1.45;0.70;;;;;;;;;;5026394;28;20389;-83
2023/04/13 11:05:19;;;;;;;1.42;0.57;;;;;;;;;;5024545;28;20080;-83
2023/04/13 11:07:49;;;;;;;2.15;0.70;;;;;;;;;;5006564;28;20072;-83
2023/04/13 11:10:17;;;;;;;2.97;1.48;;;;;;;;;;5025973;28;20041;-84
2023/04/13 11:12:50;;;;;;;2.80;1.50;;;;;;;;;;5024234;28;20080;-84
2023/04/13 11:15:35;;;;;;;2.40;1.30;;;;;;;;;;5024354;28;20048;-84
2023/04/13 11:18:02;;;;;;;2.67;1.10;;;;;;;;;;5014497;28;20531;-82
2023/04/13 11:20:31;;;;;;;3.53;0.82;;;;;;;;;;5023328;28;20044;-82
2023/04/13 11:22:58;;;;;;;2.25;1.00;;;;;;;;;;5023260;28;20057;-85
2023/04/13 11:25:25;;;;;;;3.47;1.58;;;;;;;;;;5019240;28;20636;-84
2023/04/13 11:27:58;;;;;;;2.55;1.00;;;;;;;;;;5038760;28;20615;-82
2023/04/13 11:30:24;;;;;;;2.50;0.85;;;;;;;;;;5004590;28;20059;-82
2023/04/13 11:32:52;;;;;;;4.18;1.40;;;;;;;;;;5016726;28;20146;-81
2023/04/13 11:35:19;;;;;;;4.20;1.52;;;;;;;;;;5004285;28;20079;-81
2023/04/13 11:37:47;;;;;;;3.17;1.00;;;;;;;;;;5022649;28;20044;-80
2023/04/13 11:40:16;;;;;;;1.10;0.70;;;;;;;;;;5020367;28;21302;-79
2023/04/13 11:42:46;;;;;;;2.80;0.98;;;;;;;;;;5021604;28;20059;-79
2023/04/13 11:45:15;;;;;;;6.40;1.23;;;;;;;;;;5022884;28;20052;-80
2023/04/13 11:47:42;;;;;;;4.22;1.20;;;;;;;;;;5015875;28;20528;-80
2023/04/13 11:50:09;;;;;;;2.95;0.95;;;;;;;;;;5007070;28;20088;-81
2023/04/13 11:52:36;;;;;;;2.78;0.93;;;;;;;;;;5017161;28;20041;-82
2023/04/13 11:55:06;;;;;;;4.60;1.00;;;;;;;;;;5017926;28;20048;-81
2023/04/13 11:57:33;;;;;;;6.57;1.05;;;;;;;;;;5017560;28;20124;-80
2023/04/13 11:59:59;;;;;;;4.18;1.20;;;;;;;;;;5019355;28;20041;-81
2023/04/13 12:02:30;;;;;;;9.07;1.75;;;;;;;;;;5018506;28;20120;-82
2023/04/13 12:04:57;;;;;;;7.03;1.52;;;;;;;;;;5021193;28;20768;-82
2023/04/13 12:07:23;;;;;;;5.50;1.80;;;;;;;;;;5021391;28;20469;-82
2023/04/13 12:09:50;;;;;;;10.77;2.17;;;;;;;;;;5015425;28;20579;-84
2023/04/13 12:12:17;;;;;;;10.35;2.17;;;;;;;;;;5035664;28;20080;-81
2023/04/13 12:14:43;;;;;;;9.88;1.25;;;;;;;;;;5023030;28;20037;-77
2023/04/13 12:17:10;;;;;;;7.60;1.58;;;;;;;;;;5023934;28;20049;-78
2023/04/13 12:19:39;;;;;;;10.55;1.80;;;;;;;;;;5009845;28;20469;-78
2023/04/13 12:22:06;;;;;;;6.00;1.52;;;;;;;;;;5024183;28;20045;-78
2023/04/13 12:24:36;;;;;;;10.20;2.22;;;;;;;;;;5022991;28;20875;-80
2023/04/13 12:27:05;;;;;;;5.75;1.67;;;;;;;;;;5032514;28;20051;-78
2023/04/13 12:29:39;;;;;;;11.48;3.10;;;;;;;;;;5022737;28;20480;-79
2023/04/13 12:32:10;;;;;;;7.65;1.85;;;;;;;;;;5008083;28;20784;-77
2023/04/13 12:34:37;;;;;;;14.00;2.40;;;;;;;;;;5014739;28;20349;-78
2023/04/13 12:37:04;;;;;;;11.70;2.75;;;;;;;;;;5036502;28;20127;-77
2023/04/13 12:39:30;;;;;;;17.02;3.63;;;;;;;;;;5018932;28;20048;-79
2023/04/13 12:41:56;;;;;;;11.93;2.45;;;;;;;;;;4985214;28;20493;-80
2023/04/13 12:44:22;;;;;;;14.13;2.72;;;;;;;;;;5021576;28;20059;-79
2023/04/13 12:46:49;;;;;;;17.08;4.03;;;;;;;;;;5021653;28;20052;-80
2023/04/13 12:49:15;;;;;;;13.73;3.50;;;;;;;;;;5017578;28;20512;-79
2023/04/13 12:51:42;;;;;;;14.75;4.07;;;;;;;;;;5006866;28;20041;-79
2023/04/13 12:54:12;;;;;;;10.50;2.95;;;;;;;;;;5019806;28;20152;-79
2023/04/13 12:56:41;;;;;;;10.25;2.67;;;;;;;;;;5007202;28;20477;-77
2023/04/13 12:59:07;;;;;;;16.00;3.25;;;;;;;;;;5019924;28;20136;-77
2023/04/13 13:01:36;;;;;;;14.07;3.13;;;;;;;;;;5020386;28;20085;-77
2023/04/13 13:04:03;;;;;;;19.95;3.28;;;;;;;;;;5038621;28;20041;-78
2023/04/13 13:06:29;;;;;;;14.70;2.33;;;;;;;;;;5018950;28;20037;-77
2023/04/13 13:08:55;;;;;;;12.95;2.30;;;;;;;;;;5037153;28;20045;-77
2023/04/13 13:11:21;;;;;;;20.17;2.50;;;;;;;;;;5004480;28;21720;-78
2023/04/13 13:13:47;;;;;;;8.57;2.13;;;;;;;;;;5003521;28;20424;-77
2023/04/13 13:16:14;;;;;;;12.65;2.80;;;;;;;;;;5021172;28;20033;-77
2023/04/13 13:18:40;;;;;;;10.93;2.60;;;;;;;;;;5021358;28;20045;-78
2023/04/13 13:21:08;;;;;;;18.55;3.40;;;;;;;;;;4997154;28;20080;-76
2023/04/13 13:23:34;;;;;;;14.07;2.45;;;;;;;;;;5012855;28;20051;-78
2023/04/13 13:26:00;;;;;;;19.05;3.22;;;;;;;;;;5023184;28;20049;-76
2023/04/13 13:28:27;;;;;;;21.38;4.45;;;;;;;;;;5032119;28;20421;-77
2023/04/13 13:30:53;;;;;;;18.23;3.00;;;;;;;;;;5014851;28;20167;-78
2023/04/13 13:33:19;;;;;;;15.40;3.10;;;;;;;;;;5018769;28;20064;-76
2023/04/13 13:35:45;;;;;;;12.50;2.50;;;;;;;;;;5030825;28;20048;-76
2023/04/13 13:38:12;;;;;;;6.55;2.67;;;;;;;;;;5021110;28;20311;-76
2023/04/13 13:40:38;;;;;;;13.85;2.78;;;;;;;;;;5005588;28;20088;-76
2023/04/13 13:43:04;;;;;;;13.70;3.10;;;;;;;;;;4998052;28;20045;-77
2023/04/13 13:45:30;;;;;;;9.55;2.15;;;;;;;;;;5015751;28;20098;-77
2023/04/13 13:47:57;;;;;;;8.75;2.40;;;;;;;;;;5016088;28;20049;-77
2023/04/13 13:50:24;;;;;;;11.13;2.50;;;;;;;;;;5021654;28;20130;-78
2023/04/13 13:52:50;;;;;;;11.95;1.85;;;;;;;;;;5020898;28;20045;-78
2023/04/13 13:55:18;;;;;;;14.00;3.75;;;;;;;;;;5001385;28;20040;-78
2023/04/13 13:57:45;;;;;;;19.63;2.70;;;;;;;;;;5019730;28;20190;-78
2023/04/13 14:00:15;;;;;;;14.02;3.58;;;;;;;;;;5000981;28;21934;-78
2023/04/13 14:02:42;;;;;;;12.70;1.80;;;;;;;;;;5035044;28;20052;-78
2023/04/13 14:05:11;;;;;;;12.57;2.20;;;;;;;;;;5003030;28;20051;-79
2023/04/13 14:07:38;;;;;;;15.43;2.67;;;;;;;;;;5023514;28;20049;-77
2023/04/13 14:10:04;;;;;;;12.07;2.38;;;;;;;;;;5009013;28;20139;-77
2023/04/13 14:12:30;;;;;;;10.80;2.67;;;;;;;;;;5024912;28;20094;-78
2023/04/13 14:14:57;;;;;;;13.57;2.92;;;;;;;;;;5035571;28;20047;-76
2023/04/13 14:17:23;;;;;;;8.95;2.22;;;;;;;;;;5024276;28;20048;-76
2023/04/13 14:19:49;;;;;;;12.00;2.13;;;;;;;;;;5018677;28;20189;-78
2023/04/13 14:22:15;;;;;;;13.32;2.45;;;;;;;;;;5009555;28;20344;-76
2023/04/13 14:24:41;;;;;;;11.40;2.38;;;;;;;;;;5025980;28;20118;-76
2023/04/13 14:27:07;;;;;;;7.50;1.90;;;;;;;;;;5006090;28;20045;-78
2023/04/13 14:29:33;;;;;;;10.85;2.70;;;;;;;;;;5024289;28;20040;-76
2023/04/13 14:32:00;;;;;;;16.88;2.65;;;;;;;;;;5022816;28;20044;-78
2023/04/13 14:34:26;;;;;;;11.85;2.42;;;;;;;;;;5024130;28;20464;-78
2023/04/13 14:36:52;;;;;;;18.48;3.05;;;;;;;;;;4997031;28;20036;-78
2023/04/13 14:39:18;;;;;;;11.32;2.83;;;;;;;;;;5028988;28;20153;-79
2023/04/13 14:41:44;;;;;;;10.45;2.72;;;;;;;;;;5014590;28;20083;-78